Time;durP1;ratioP1;P1;durP2;ratioP2;P2;SDS_P1;SDS_P2;PMS_P1;PMS_P2;Temp;Humidity;BMP_temperature;BMP_pressure;BME280_temperature;BME280_humidity;BME280_pressure;Samples;Min_cycle;Max_cycle;Signal;HPM_P1;HPM_P2
2022/01/21 00:02:10;;;;;;;29.58;11.65;;;-2.10;99.90;;;;;;5031727;28;20038;-61
2022/01/21 00:04:38;;;;;;;27.85;11.65;;;-2.20;99.90;;;;;;5026892;28;20054;-61
2022/01/21 00:07:06;;;;;;;31.17;11.63;;;-2.20;99.90;;;;;;5012248;28;20050;-62
2022/01/21 00:09:35;;;;;;;31.77;11.33;;;-2.20;99.90;;;;;;5028639;28;20053;-61
2022/01/21 00:12:03;;;;;;;28.65;10.88;;;-2.30;99.90;;;;;;5014521;28;20050;-62
2022/01/21 00:14:30;;;;;;;33.53;12.60;;;-2.30;99.90;;;;;;5032685;28;20054;-63
2022/01/21 00:16:58;;;;;;;33.08;12.68;;;-2.30;99.90;;;;;;5029314;28;20052;-62
2022/01/21 00:19:28;;;;;;;28.63;12.85;;;-2.30;99.90;;;;;;5026624;28;20038;-63
2022/01/21 00:30:27;;;;;;;29.40;10.55;;;-2.30;99.90;;;;;;5031378;28;20050;-67
2022/01/21 00:32:55;;;;;;;30.60;11.55;;;-2.30;99.90;;;;;;5029896;28;20049;-63
2022/01/21 00:35:22;;;;;;;33.20;12.15;;;-2.40;99.90;;;;;;5022673;28;20045;-64
2022/01/21 00:37:50;;;;;;;32.22;11.63;;;-2.40;99.90;;;;;;5012611;28;20045;-62
2022/01/21 00:40:22;;;;;;;40.83;12.43;;;-2.40;99.90;;;;;;5030105;28;20052;-62
2022/01/21 00:43:08;;;;;;;27.67;11.52;;;-2.40;99.90;;;;;;5029545;28;20045;-69
2022/01/21 00:45:36;;;;;;;38.08;13.52;;;-2.40;99.90;;;;;;5029636;28;20053;-64
2022/01/21 00:48:05;;;;;;;30.92;12.23;;;-2.40;99.90;;;;;;5029854;28;20037;-68
2022/01/21 00:50:34;;;;;;;36.97;12.93;;;-2.50;99.90;;;;;;5025732;28;20045;-66
2022/01/21 00:53:02;;;;;;;33.27;11.93;;;-2.40;99.90;;;;;;5030607;28;20041;-64
2022/01/21 00:55:30;;;;;;;34.17;12.73;;;-2.50;99.90;;;;;;5029666;28;20309;-67
2022/01/21 00:57:57;;;;;;;33.58;10.95;;;-2.50;99.90;;;;;;5030866;28;20524;-66
2022/01/21 01:00:25;;;;;;;39.97;12.13;;;-2.50;99.90;;;;;;5029021;28;20041;-68
2022/01/21 01:02:53;;;;;;;27.00;11.40;;;-2.50;99.90;;;;;;5028124;28;20053;-65
2022/01/21 01:05:22;;;;;;;29.63;11.20;;;-2.50;99.90;;;;;;5020646;28;20053;-65
2022/01/21 01:07:50;;;;;;;28.27;11.50;;;-2.50;99.90;;;;;;5044547;28;20046;-67
2022/01/21 01:10:25;;;;;;;26.90;11.32;;;-2.60;99.90;;;;;;5030516;28;20057;-66
2022/01/21 01:19:51;;;;;;;31.90;12.23;;;-2.60;99.90;;;;;;5061967;28;20054;-64
2022/01/21 01:21:19;;;;;;;37.45;12.15;;;-2.60;99.90;;;;;;5009341;28;20061;-68
2022/01/21 01:27:35;;;;;;;27.15;10.52;;;-2.60;99.90;;;;;;5028987;28;20066;-69
2022/01/21 01:29:36;;;;;;;28.02;10.32;;;-2.50;99.90;;;;;;5030137;28;20045;-63
2022/01/21 01:32:05;;;;;;;28.67;11.70;;;-2.60;99.90;;;;;;5030233;28;20508;-66
2022/01/21 01:34:33;;;;;;;34.30;12.65;;;-2.70;99.90;;;;;;5062073;28;20045;-65
2022/01/21 01:37:07;;;;;;;26.75;11.32;;;-2.70;99.90;;;;;;4994054;28;20054;-63
2022/01/21 01:39:44;;;;;;;30.83;10.75;;;-2.70;99.90;;;;;;5025269;28;20049;-62
2022/01/21 01:42:45;;;;;;;21.48;9.82;;;-2.70;99.90;;;;;;5061760;28;20057;-62
2022/01/21 01:50:41;;;;;;;30.98;11.77;;;-2.70;99.90;;;;;;5021863;28;20050;-62
2022/01/21 01:53:10;;;;;;;20.58;9.20;;;-2.70;99.90;;;;;;5012121;28;20510;-63
2022/01/21 01:55:37;;;;;;;31.20;11.70;;;-2.70;99.90;;;;;;5028570;28;20053;-63
2022/01/21 01:58:05;;;;;;;32.63;11.02;;;-2.70;99.90;;;;;;5028468;28;20516;-62
2022/01/21 02:00:33;;;;;;;22.50;10.15;;;-2.70;99.90;;;;;;5028149;28;20048;-62
2022/01/21 02:03:11;;;;;;;39.53;12.05;;;-2.70;99.90;;;;;;5061203;28;20049;-61
2022/01/21 02:05:39;;;;;;;27.50;10.27;;;-2.70;99.90;;;;;;5022715;28;20405;-62
2022/01/21 02:08:07;;;;;;;30.30;11.45;;;-2.70;99.90;;;;;;4980470;28;20413;-64
2022/01/21 02:10:36;;;;;;;33.78;11.38;;;-2.70;99.90;;;;;;5029095;28;20037;-63
2022/01/21 02:13:17;;;;;;;30.40;11.67;;;-2.60;99.90;;;;;;5027202;28;20061;-63
2022/01/21 02:15:57;;;;;;;24.75;11.73;;;-2.60;99.90;;;;;;5028273;28;20611;-63
2022/01/21 02:21:38;;;;;;;28.35;11.32;;;-2.60;99.90;;;;;;5019399;28;20050;-62
2022/01/21 02:24:35;;;;;;;27.80;10.85;;;-2.40;99.90;;;;;;5018871;28;20045;-72
2022/01/21 02:27:03;;;;;;;22.63;10.45;;;-2.40;99.90;;;;;;5028469;28;20041;-62
2022/01/21 02:29:43;;;;;;;36.53;11.35;;;-2.30;99.90;;;;;;5029015;28;20050;-63
2022/01/21 02:32:11;;;;;;;;;;;-2.30;99.90;;;;;;5044503;28;20045;-64
2022/01/21 02:34:39;;;;;;;31.55;11.65;;;-2.20;99.90;;;;;;5034562;28;19929;-63
2022/01/21 02:37:07;;;;;;;26.10;10.25;;;-2.10;99.90;;;;;;5036257;28;20049;-64
2022/01/21 02:39:35;;;;;;;26.73;11.25;;;-2.10;99.90;;;;;;5027753;28;20033;-62
2022/01/21 02:42:04;;;;;;;37.30;12.10;;;-2.00;99.90;;;;;;5030845;28;20425;-62
2022/01/21 02:44:32;;;;;;;28.07;10.87;;;-2.00;99.90;;;;;;5030689;28;20053;-62
2022/01/21 02:47:01;;;;;;;26.60;10.77;;;-2.00;99.90;;;;;;5063027;28;20588;-62
2022/01/21 02:49:33;;;;;;;23.77;12.05;;;-1.90;99.90;;;;;;5030974;28;20037;-64
2022/01/21 02:52:03;;;;;;;26.92;12.38;;;-1.90;99.90;;;;;;5030490;28;20048;-62
2022/01/21 02:54:34;;;;;;;26.33;11.10;;;-1.80;99.90;;;;;;5030865;28;20041;-64
2022/01/21 02:57:06;;;;;;;32.95;11.38;;;-1.80;99.90;;;;;;5014551;28;20056;-66
2022/01/21 02:59:35;;;;;;;25.88;10.95;;;-1.70;99.90;;;;;;5030403;28;20045;-64
2022/01/21 03:02:03;;;;;;;24.70;10.88;;;-1.60;99.90;;;;;;5030502;28;20037;-63
2022/01/21 03:07:18;;;;;;;28.42;9.13;;;-1.50;99.90;;;;;;5030446;28;20049;-62
2022/01/21 03:09:46;;;;;;;28.15;12.63;;;-1.50;99.90;;;;;;5030952;28;20041;-62
2022/01/21 03:12:14;;;;;;;25.88;10.93;;;-1.40;99.90;;;;;;5030454;28;20515;-62
2022/01/21 03:14:41;;;;;;;24.33;10.85;;;-1.40;99.90;;;;;;5031458;28;20473;-63
2022/01/21 03:17:09;;;;;;;22.15;10.30;;;-1.30;99.90;;;;;;5031609;28;20239;-64
2022/01/21 03:19:37;;;;;;;24.70;10.30;;;-1.30;99.90;;;;;;5014810;28;20038;-63
2022/01/21 03:22:05;;;;;;;22.60;10.77;;;-1.20;99.90;;;;;;5030544;28;20064;-64
2022/01/21 03:24:33;;;;;;;27.10;10.02;;;-1.20;99.90;;;;;;5013690;28;20041;-63
2022/01/21 03:27:00;;;;;;;23.30;9.68;;;-1.10;99.90;;;;;;5031803;28;20481;-63
2022/01/21 03:29:28;;;;;;;23.48;10.00;;;-1.10;99.90;;;;;;5031046;28;20038;-63
2022/01/21 03:31:57;;;;;;;20.98;10.55;;;-1.10;99.90;;;;;;5031193;28;20068;-64
2022/01/21 03:34:25;;;;;;;26.50;10.40;;;-1.00;99.90;;;;;;5031194;28;20049;-63
2022/01/21 03:36:54;;;;;;;21.30;9.65;;;-1.00;99.90;;;;;;5030878;28;20452;-65
2022/01/21 03:39:22;;;;;;;30.55;10.75;;;-0.90;99.90;;;;;;5030340;28;20053;-65
2022/01/21 03:41:50;;;;;;;24.63;9.60;;;-0.90;99.90;;;;;;5031618;28;20057;-63
2022/01/21 03:44:19;;;;;;;22.77;9.77;;;-0.90;99.90;;;;;;5013501;28;20049;-63
2022/01/21 03:46:47;;;;;;;18.30;9.30;;;-0.90;99.90;;;;;;5030351;28;20049;-63
2022/01/21 03:49:15;;;;;;;24.52;10.98;;;-0.90;99.90;;;;;;5030209;28;20042;-63
2022/01/21 03:51:44;;;;;;;;;;;-0.80;99.90;;;;;;5030453;28;20421;-63
2022/01/21 03:54:11;;;;;;;26.25;9.43;;;-0.80;99.90;;;;;;5029964;28;19935;-64
2022/01/21 03:56:39;;;;;;;24.17;9.98;;;-0.80;99.90;;;;;;5030363;28;20038;-65
2022/01/21 03:59:07;;;;;;;21.65;8.98;;;-0.80;99.90;;;;;;5013655;28;20069;-63
2022/01/21 04:01:35;;;;;;;22.73;9.88;;;-0.80;99.90;;;;;;5031133;28;20382;-65
2022/01/21 04:04:03;;;;;;;18.50;8.98;;;-0.70;99.90;;;;;;5030208;28;20053;-63
2022/01/21 04:06:31;;;;;;;27.65;10.05;;;-0.70;99.90;;;;;;5030138;28;20049;-67
2022/01/21 04:08:59;;;;;;;23.40;9.32;;;-0.70;99.90;;;;;;5063290;28;20045;-67
2022/01/21 04:11:27;;;;;;;23.92;10.30;;;-0.60;99.90;;;;;;5030090;28;20413;-66
2022/01/21 04:13:55;;;;;;;18.98;9.45;;;-0.60;99.90;;;;;;5030152;28;20049;-65
2022/01/21 04:16:23;;;;;;;31.90;10.73;;;-0.60;99.90;;;;;;5030706;28;20061;-63
2022/01/21 04:18:51;;;;;;;19.98;8.93;;;-0.50;99.90;;;;;;5029987;28;20048;-63
2022/01/21 04:21:21;;;;;;;21.27;9.38;;;-0.50;99.90;;;;;;5030051;28;20053;-63
2022/01/21 04:23:50;;;;;;;23.08;9.02;;;-0.50;99.90;;;;;;5029944;28;20041;-63
2022/01/21 04:26:30;;;;;;;20.48;9.35;;;-0.50;99.90;;;;;;5009780;28;20413;-66
2022/01/21 04:29:10;;;;;;;23.80;10.15;;;-0.50;99.90;;;;;;5010178;28;20046;-64
2022/01/21 04:31:45;;;;;;;23.45;9.07;;;-0.40;99.90;;;;;;5010151;28;20425;-64
2022/01/21 04:34:13;;;;;;;21.67;9.15;;;-0.40;99.90;;;;;;5044771;28;20049;-64
2022/01/21 04:36:41;;;;;;;24.73;9.05;;;-0.40;99.90;;;;;;5016888;28;20048;-63
2022/01/21 04:39:15;;;;;;;26.75;9.88;;;-0.40;99.90;;;;;;5033400;28;20045;-63
2022/01/21 04:47:18;;;;;;;28.08;9.93;;;-0.30;99.90;;;;;;5033261;28;20060;-64
2022/01/21 04:49:50;;;;;;;19.65;8.52;;;-0.30;99.90;;;;;;5033125;28;20653;-63
2022/01/21 04:52:20;;;;;;;18.73;9.07;;;-0.30;99.90;;;;;;5033046;28;20653;-63
2022/01/21 04:54:53;;;;;;;33.72;10.50;;;-0.20;99.90;;;;;;5032757;28;20603;-63
2022/01/21 04:57:21;;;;;;;22.65;10.23;;;-0.20;99.90;;;;;;5032896;28;20037;-62
2022/01/21 04:59:49;;;;;;;17.73;9.15;;;-0.20;99.90;;;;;;5032809;28;20057;-63
2022/01/21 05:02:18;;;;;;;20.80;10.03;;;-0.20;99.90;;;;;;5033047;28;20069;-63
2022/01/21 05:04:47;;;;;;;20.73;8.82;;;-0.20;99.90;;;;;;5032517;28;20765;-62
2022/01/21 05:07:20;;;;;;;21.75;8.68;;;-0.10;99.90;;;;;;5032735;28;20053;-63
2022/01/21 05:09:48;;;;;;;21.98;9.98;;;-0.10;99.90;;;;;;5032793;28;20045;-63
2022/01/21 05:12:19;;;;;;;20.85;9.45;;;-0.10;99.90;;;;;;5032620;28;20049;-63
2022/01/21 05:17:18;;;;;;;22.45;9.35;;;-0.10;99.90;;;;;;5032265;28;20045;-63
2022/01/21 05:19:46;;;;;;;25.67;10.05;;;0.00;99.90;;;;;;5032661;28;20375;-64
2022/01/21 05:22:32;;;;;;;25.55;10.45;;;-0.10;99.90;;;;;;5033716;28;20053;-63
2022/01/21 05:25:00;;;;;;;34.72;9.85;;;-0.10;99.90;;;;;;5032269;28;20045;-63
2022/01/21 05:27:28;;;;;;;26.83;10.90;;;-0.10;99.90;;;;;;5032159;28;20519;-63
2022/01/21 05:29:56;;;;;;;25.27;8.77;;;0.00;99.90;;;;;;5048760;28;20049;-60
2022/01/21 05:32:34;;;;;;;18.67;9.30;;;0.00;99.90;;;;;;5032402;28;20642;-62
2022/01/21 05:35:31;;;;;;;19.80;9.73;;;0.00;99.90;;;;;;5011821;28;20069;-61
2022/01/21 05:38:34;;;;;;;22.63;9.52;;;0.00;99.90;;;;;;5009586;28;20053;-61
2022/01/21 05:41:25;;;;;;;21.10;9.75;;;0.00;99.90;;;;;;5003186;28;20058;-60
2022/01/21 05:44:14;;;;;;;21.33;9.15;;;0.00;99.90;;;;;;5012245;28;20046;-61
2022/01/21 05:47:08;;;;;;;17.83;9.25;;;0.00;99.90;;;;;;5010705;28;20049;-63
2022/01/21 05:50:05;;;;;;;29.55;9.05;;;0.00;99.90;;;;;;4995059;28;20402;-61
2022/01/21 05:52:38;;;;;;;26.45;9.63;;;0.00;99.90;;;;;;5009966;28;20049;-61
2022/01/21 05:55:26;;;;;;;20.83;9.98;;;0.10;99.90;;;;;;5019493;28;20053;-62
2022/01/21 05:58:05;;;;;;;24.42;8.88;;;0.10;99.90;;;;;;5028702;28;20037;-61
2022/01/21 06:00:36;;;;;;;19.92;8.73;;;0.10;99.90;;;;;;5033091;28;20049;-61
2022/01/21 06:03:04;;;;;;;18.45;8.85;;;0.20;99.90;;;;;;5023257;28;20481;-62
2022/01/21 06:05:36;;;;;;;20.83;10.05;;;0.20;99.90;;;;;;5026868;28;20049;-61
2022/01/21 06:08:05;;;;;;;21.27;9.40;;;0.20;99.90;;;;;;5043208;28;20054;-61
2022/01/21 06:10:33;;;;;;;25.20;9.45;;;0.20;99.90;;;;;;5027999;28;20499;-61
2022/01/21 06:13:00;;;;;;;21.25;10.13;;;0.20;99.90;;;;;;5024867;28;20057;-61
2022/01/21 06:15:29;;;;;;;11.07;6.35;;;0.30;99.90;;;;;;5025308;28;20378;-61
2022/01/21 06:17:57;;;;;;;19.67;8.52;;;0.30;99.90;;;;;;5025978;28;20042;-63
2022/01/21 06:20:24;;;;;;;22.65;8.80;;;0.30;99.90;;;;;;5009717;28;20045;-62
2022/01/21 06:22:52;;;;;;;14.77;7.50;;;0.30;99.90;;;;;;5017443;28;20041;-64
2022/01/21 06:25:20;;;;;;;14.77;5.75;;;0.40;99.90;;;;;;5020847;28;20615;-67
2022/01/21 06:27:48;;;;;;;14.70;5.55;;;0.30;99.90;;;;;;5029168;28;20060;-66
2022/01/21 06:30:16;;;;;;;10.70;3.58;;;0.40;99.90;;;;;;5023555;28;20045;-63
2022/01/21 06:32:44;;;;;;;11.38;3.72;;;0.40;99.90;;;;;;5022100;28;20041;-64
2022/01/21 06:35:12;;;;;;;18.25;4.97;;;0.50;99.90;;;;;;5006457;28;20385;-66
2022/01/21 06:37:40;;;;;;;11.38;4.20;;;0.50;99.90;;;;;;5025192;28;20041;-64
2022/01/21 06:40:09;;;;;;;8.73;3.20;;;0.60;99.90;;;;;;5024487;28;20045;-64
2022/01/21 06:42:37;;;;;;;19.92;3.47;;;0.60;99.90;;;;;;5025823;28;20045;-63
2022/01/21 06:45:05;;;;;;;14.57;3.70;;;0.60;99.90;;;;;;5023727;28;20057;-63
2022/01/21 06:47:33;;;;;;;10.18;2.28;;;0.70;99.90;;;;;;5027604;28;20049;-66
2022/01/21 06:50:01;;;;;;;10.45;3.25;;;0.80;99.90;;;;;;5014289;28;20641;-63
2022/01/21 06:52:30;;;;;;;10.57;2.30;;;0.90;99.90;;;;;;5027323;28;20068;-62
2022/01/21 06:54:58;;;;;;;7.32;2.20;;;0.90;99.90;;;;;;5027660;28;20409;-63
2022/01/21 06:57:27;;;;;;;6.57;2.50;;;1.00;99.90;;;;;;5028401;28;20045;-63
2022/01/21 06:59:56;;;;;;;8.67;2.40;;;1.10;99.90;;;;;;5022675;28;20056;-61
2022/01/21 07:02:24;;;;;;;10.63;2.92;;;1.10;99.90;;;;;;5025536;28;20417;-61
2022/01/21 07:04:52;;;;;;;6.75;2.95;;;1.10;99.90;;;;;;5007780;28;20923;-60
2022/01/21 07:07:21;;;;;;;8.88;2.30;;;1.10;99.90;;;;;;5023535;28;20665;-61
2022/01/21 07:09:50;;;;;;;10.07;2.90;;;1.10;99.90;;;;;;5028364;28;20049;-61
2022/01/21 07:12:20;;;;;;;14.00;3.00;;;1.20;99.90;;;;;;5028504;28;20057;-61
2022/01/21 07:14:48;;;;;;;10.95;2.38;;;1.20;99.90;;;;;;5028009;28;20050;-63
2022/01/21 07:17:15;;;;;;;12.32;2.30;;;1.20;99.90;;;;;;5027158;28;20069;-61
2022/01/21 07:19:43;;;;;;;5.40;2.17;;;1.30;99.90;;;;;;5012451;28;20057;-61
2022/01/21 07:22:11;;;;;;;10.38;2.42;;;1.30;99.90;;;;;;5011363;28;20057;-66
2022/01/21 07:24:39;;;;;;;11.80;2.03;;;1.30;99.90;;;;;;5028362;28;20044;-64
2022/01/21 07:27:06;;;;;;;13.02;2.90;;;1.30;99.90;;;;;;5027739;28;20041;-64
2022/01/21 07:29:35;;;;;;;8.80;1.95;;;1.30;99.90;;;;;;5027387;28;20049;-63
2022/01/21 07:32:03;;;;;;;12.48;2.08;;;1.40;99.90;;;;;;5025805;28;20049;-64
2022/01/21 07:34:31;;;;;;;6.82;1.83;;;1.40;99.90;;;;;;5010677;28;20062;-62
2022/01/21 07:36:59;;;;;;;13.68;3.10;;;1.40;99.90;;;;;;5006681;28;20061;-62
2022/01/21 07:39:26;;;;;;;9.50;2.60;;;1.40;99.90;;;;;;5027731;28;20049;-61
2022/01/21 07:41:54;;;;;;;11.13;2.65;;;1.50;99.90;;;;;;5027729;28;20401;-62
2022/01/21 07:44:22;;;;;;;10.25;2.55;;;1.50;99.90;;;;;;5019184;28;20042;-64
2022/01/21 07:46:50;;;;;;;8.50;2.92;;;1.50;99.90;;;;;;5027249;28;20053;-65
2022/01/21 07:49:18;;;;;;;14.05;2.55;;;1.50;99.90;;;;;;5020353;28;20037;-66
2022/01/21 07:51:46;;;;;;;10.63;3.60;;;1.60;99.90;;;;;;5026918;28;20045;-62
2022/01/21 07:54:14;;;;;;;13.27;2.80;;;1.60;99.90;;;;;;5026418;28;20477;-62
2022/01/21 07:56:45;;;;;;;12.60;2.55;;;1.60;99.90;;;;;;5023889;28;20548;-63
2022/01/21 07:59:14;;;;;;;8.05;1.95;;;1.70;99.90;;;;;;5024370;28;20053;-64
2022/01/21 08:01:42;;;;;;;;;;;1.70;99.90;;;;;;5026670;28;20456;-67
2022/01/21 08:04:10;;;;;;;13.10;2.45;;;1.70;99.90;;;;;;5016131;28;19927;-65
2022/01/21 08:06:38;;;;;;;8.13;2.17;;;1.80;99.90;;;;;;5004458;28;20054;-62
2022/01/21 08:09:07;;;;;;;22.05;4.32;;;1.80;99.90;;;;;;5024584;28;20481;-62
2022/01/21 08:11:35;;;;;;;12.98;2.38;;;1.80;99.90;;;;;;5030111;28;20532;-62
2022/01/21 08:14:03;;;;;;;7.97;1.95;;;1.90;99.90;;;;;;5030035;28;20061;-65
2022/01/21 08:16:32;;;;;;;13.80;2.67;;;1.90;99.90;;;;;;5030684;28;20045;-69
2022/01/21 08:19:00;;;;;;;;;;;1.90;99.90;;;;;;5025587;28;20058;-69
2022/01/21 08:21:28;;;;;;;8.57;2.40;;;2.00;99.90;;;;;;5010973;28;19925;-68
2022/01/21 08:23:56;;;;;;;13.48;2.67;;;2.00;99.90;;;;;;5028264;28;20049;-65
2022/01/21 08:26:27;;;;;;;6.18;2.28;;;2.00;99.90;;;;;;5032822;28;20056;-63
2022/01/21 08:28:59;;;;;;;8.68;2.55;;;2.10;99.90;;;;;;5032637;28;20050;-64
2022/01/21 08:31:27;;;;;;;7.32;2.50;;;2.10;99.90;;;;;;5031533;28;20053;-61
2022/01/21 08:33:57;;;;;;;11.90;2.75;;;2.20;99.90;;;;;;5023242;28;20065;-61
2022/01/21 08:36:26;;;;;;;5.43;2.13;;;2.20;99.90;;;;;;5024373;28;20045;-62
2022/01/21 08:38:54;;;;;;;8.07;2.00;;;2.20;99.90;;;;;;5030908;28;20050;-62
2022/01/21 08:41:22;;;;;;;5.43;1.85;;;2.30;99.90;;;;;;5030229;28;20049;-62
2022/01/21 08:43:49;;;;;;;9.88;3.15;;;2.30;99.90;;;;;;5030775;28;20056;-62
2022/01/21 08:46:17;;;;;;;9.82;2.92;;;2.40;99.90;;;;;;5030089;28;20053;-61
2022/01/21 08:48:45;;;;;;;9.73;2.42;;;2.30;99.90;;;;;;5027116;28;20041;-62
2022/01/21 08:51:19;;;;;;;9.50;2.70;;;2.40;99.90;;;;;;5020378;28;20056;-62
2022/01/21 08:53:47;;;;;;;12.60;2.42;;;2.40;99.90;;;;;;5028262;28;20103;-62
2022/01/21 08:56:16;;;;;;;7.43;2.10;;;2.50;99.90;;;;;;5026650;28;20037;-62
2022/01/21 08:58:45;;;;;;;8.00;2.40;;;2.50;99.90;;;;;;5028462;28;20497;-62
2022/01/21 09:01:14;;;;;;;11.50;2.83;;;2.50;99.90;;;;;;5028585;28;20049;-64
2022/01/21 09:03:43;;;;;;;8.48;2.70;;;2.50;99.90;;;;;;5027656;28;20770;-62
2022/01/21 09:06:12;;;;;;;7.70;2.83;;;2.50;99.90;;;;;;5026056;28;20064;-62
2022/01/21 09:08:41;;;;;;;14.02;3.30;;;2.60;99.90;;;;;;5028932;28;20053;-62
2022/01/21 09:11:09;;;;;;;6.85;2.75;;;2.60;99.90;;;;;;5029885;28;20416;-62
2022/01/21 09:13:40;;;;;;;9.52;2.35;;;2.70;99.90;;;;;;5030214;28;20283;-61
2022/01/21 09:16:09;;;;;;;7.53;2.25;;;2.70;99.90;;;;;;5028155;28;20057;-63
2022/01/21 09:18:47;;;;;;;9.73;2.20;;;2.80;99.90;;;;;;5029351;28;20045;-64
2022/01/21 09:21:37;;;;;;;6.80;1.60;;;2.80;99.90;;;;;;5026760;28;20041;-64
2022/01/21 09:24:06;;;;;;;12.05;2.92;;;2.90;99.90;;;;;;5025370;28;20504;-63
2022/01/21 09:26:34;;;;;;;6.90;2.03;;;2.90;99.90;;;;;;5029993;28;20041;-65
2022/01/21 09:29:05;;;;;;;11.23;2.03;;;2.90;99.90;;;;;;5027638;28;20045;-62
2022/01/21 09:31:33;;;;;;;4.00;2.00;;;3.00;99.90;;;;;;5028956;28;20484;-61
2022/01/21 09:34:22;;;;;;;8.55;2.42;;;3.00;99.90;;;;;;5027518;28;20037;-61
2022/01/21 09:36:51;;;;;;;10.68;2.40;;;3.00;99.90;;;;;;5027011;28;20449;-62
2022/01/21 09:39:18;;;;;;;9.60;2.08;;;3.10;99.90;;;;;;5029829;28;20057;-63
2022/01/21 09:41:46;;;;;;;7.68;3.33;;;3.20;99.90;;;;;;5027991;28;20049;-62
2022/01/21 09:44:18;;;;;;;8.00;2.80;;;3.20;99.90;;;;;;5028313;28;20050;-62
2022/01/21 09:46:50;;;;;;;6.15;2.20;;;3.20;99.90;;;;;;5027801;28;20033;-64
2022/01/21 09:51:59;;;;;;;7.07;2.10;;;3.30;99.90;;;;;;5024645;28;20046;-61
2022/01/21 09:54:31;;;;;;;7.80;2.15;;;3.30;99.90;;;;;;5025251;28;20392;-62
2022/01/21 09:57:01;;;;;;;13.77;3.10;;;3.40;99.90;;;;;;5029490;28;20057;-61
2022/01/21 09:59:30;;;;;;;;;;;3.40;99.90;;;;;;5029914;28;20068;-64
2022/01/21 10:02:04;;;;;;;5.43;1.40;;;3.40;99.90;;;;;;5030112;28;20364;-62
2022/01/21 10:04:35;;;;;;;7.97;2.33;;;3.50;99.90;;;;;;5025207;28;20378;-62
2022/01/21 10:07:04;;;;;;;10.00;2.50;;;3.50;99.90;;;;;;5022517;28;20052;-62
2022/01/21 10:09:32;;;;;;;10.63;1.90;;;3.60;99.90;;;;;;5026831;28;20042;-61
2022/01/21 10:12:01;;;;;;;7.40;1.98;;;3.60;99.90;;;;;;5027042;28;20060;-62
2022/01/21 10:14:30;;;;;;;14.30;2.50;;;3.60;99.90;;;;;;5029176;28;20050;-63
2022/01/21 10:16:59;;;;;;;6.90;1.98;;;3.70;99.90;;;;;;5027384;28;20496;-61
2022/01/21 10:19:32;;;;;;;11.98;2.60;;;3.70;99.90;;;;;;5022391;28;20053;-62
2022/01/21 10:22:16;;;;;;;6.97;2.38;;;3.70;99.90;;;;;;5024562;28;20053;-61
2022/01/21 10:25:01;;;;;;;8.38;2.38;;;3.80;99.90;;;;;;5026019;28;20052;-61
2022/01/21 10:27:40;;;;;;;22.38;4.13;;;3.80;99.90;;;;;;5008248;28;20902;-62
2022/01/21 10:30:27;;;;;;;7.60;2.20;;;3.80;99.90;;;;;;5028173;28;20591;-62
2022/01/21 10:32:55;;;;;;;6.15;2.63;;;3.90;99.90;;;;;;5041308;28;20303;-62
2022/01/21 10:35:35;;;;;;;11.00;2.40;;;3.90;99.90;;;;;;5026960;28;20504;-62
2022/01/21 10:38:17;;;;;;;9.45;2.65;;;3.90;99.90;;;;;;5026903;28;20257;-61
2022/01/21 10:40:45;;;;;;;12.80;2.58;;;4.00;99.90;;;;;;5029070;28;20408;-63
2022/01/21 10:43:21;;;;;;;10.10;2.85;;;4.10;99.90;;;;;;5017645;28;20041;-62
2022/01/21 10:45:57;;;;;;;6.82;2.05;;;4.10;99.90;;;;;;5027720;28;20053;-61
2022/01/21 10:48:30;;;;;;;6.28;2.65;;;4.10;99.90;;;;;;5018315;28;20050;-66
2022/01/21 10:51:20;;;;;;;6.88;2.40;;;4.20;99.90;;;;;;5021244;28;20048;-65
2022/01/21 10:53:48;;;;;;;13.45;3.15;;;4.30;99.90;;;;;;5027734;28;20497;-62
2022/01/21 10:56:18;;;;;;;16.23;2.40;;;4.30;99.90;;;;;;5027073;28;20064;-63
2022/01/21 10:58:50;;;;;;;5.15;2.47;;;4.40;99.90;;;;;;5027435;28;20049;-63
2022/01/21 11:01:22;;;;;;;13.23;3.10;;;4.60;99.90;;;;;;5027012;28;20400;-62
2022/01/21 11:04:09;;;;;;;6.35;2.42;;;4.50;99.90;;;;;;5023549;28;20050;-62
2022/01/21 11:06:50;;;;;;;8.23;3.67;;;4.60;99.90;;;;;;5019572;28;20050;-63
2022/01/21 11:09:18;;;;;;;8.88;1.85;;;4.70;99.90;;;;;;5027197;28;20050;-62
2022/01/21 11:11:47;;;;;;;10.43;2.92;;;4.80;99.90;;;;;;5026570;28;20061;-68
2022/01/21 11:14:18;;;;;;;29.63;2.38;;;4.90;99.90;;;;;;5027982;28;20053;-63
2022/01/21 11:16:48;;;;;;;9.35;2.20;;;4.90;99.90;;;;;;5028223;28;20474;-69
2022/01/21 11:19:36;;;;;;;9.50;2.63;;;4.90;99.90;;;;;;5011762;28;20057;-70
2022/01/21 11:22:04;;;;;;;19.52;3.58;;;5.00;99.90;;;;;;5013500;28;20046;-64
2022/01/21 11:24:33;;;;;;;12.70;2.65;;;5.00;99.90;;;;;;5026599;28;20045;-65
2022/01/21 11:27:12;;;;;;;8.85;2.50;;;5.10;99.90;;;;;;5026784;28;20053;-65
2022/01/21 11:29:41;;;;;;;;;;;5.10;99.90;;;;;;5027064;28;20050;-67
2022/01/21 11:32:10;;;;;;;6.03;2.33;;;5.10;99.90;;;;;;5024562;28;19928;-63
2022/01/21 11:34:38;;;;;;;17.85;2.80;;;5.20;99.90;;;;;;5024753;28;20050;-61
2022/01/21 11:37:07;;;;;;;8.40;2.25;;;5.30;99.90;;;;;;5015663;28;20048;-61
2022/01/21 11:39:35;;;;;;;6.78;2.67;;;5.40;99.90;;;;;;5027434;28;20037;-62
2022/01/21 11:42:06;;;;;;;7.90;1.70;;;5.60;99.90;;;;;;5027326;28;20505;-63
2022/01/21 11:44:38;;;;;;;8.43;2.30;;;5.80;99.90;;;;;;5011502;28;20373;-66
2022/01/21 11:49:42;;;;;;;5.68;1.92;;;6.00;99.90;;;;;;5030143;28;20049;-66
2022/01/21 11:52:18;;;;;;;8.57;2.03;;;6.20;99.90;;;;;;5014500;28;20411;-64
2022/01/21 11:54:48;;;;;;;9.48;2.97;;;6.30;99.90;;;;;;5031196;28;20053;-64
2022/01/21 11:57:25;;;;;;;11.93;2.85;;;6.30;99.90;;;;;;5029732;28;20037;-64
2022/01/21 12:00:05;;;;;;;5.68;2.50;;;6.30;99.90;;;;;;5029889;28;20060;-63
2022/01/21 12:02:36;;;;;;;;;;;6.20;99.90;;;;;;5029379;28;20053;-63
2022/01/21 12:05:10;;;;;;;7.32;2.50;;;6.20;99.90;;;;;;5028644;28;19921;-62
2022/01/21 12:07:42;;;;;;;4.63;2.15;;;6.30;99.90;;;;;;5027590;28;20610;-61
2022/01/21 12:10:14;;;;;;;7.55;2.55;;;6.40;99.90;;;;;;5028609;28;20042;-61
2022/01/21 12:12:48;;;;;;;6.50;3.90;;;6.40;99.90;;;;;;5030699;28;20041;-62
2022/01/21 12:15:29;;;;;;;4.47;3.03;;;6.30;99.90;;;;;;5030420;28;20053;-63
2022/01/21 12:20:51;;;;;;;8.18;5.00;;;6.20;99.90;;;;;;5024364;28;20054;-67
2022/01/21 12:23:22;;;;;;;22.27;12.15;;;6.20;99.90;;;;;;5021126;28;20044;-61
2022/01/21 12:26:11;;;;;;;22.27;13.88;;;6.20;99.90;;;;;;5028754;28;20053;-63
2022/01/21 12:28:43;;;;;;;20.98;15.23;;;6.20;99.90;;;;;;5026678;28;20481;-62
2022/01/21 12:31:14;;;;;;;16.73;9.68;;;6.30;99.90;;;;;;5026148;28;20054;-61
2022/01/21 12:34:06;;;;;;;12.55;7.47;;;6.30;99.90;;;;;;5027001;28;20493;-63
2022/01/21 12:36:56;;;;;;;11.88;4.57;;;6.30;99.90;;;;;;5019324;28;20050;-63
2022/01/21 12:39:41;;;;;;;6.05;2.58;;;6.40;99.90;;;;;;5027728;28;20049;-63
2022/01/21 12:42:21;;;;;;;5.50;1.40;;;6.40;99.90;;;;;;5029621;28;20657;-63
2022/01/21 12:45:10;;;;;;;5.95;1.20;;;6.40;99.90;;;;;;5030804;28;20069;-63
2022/01/21 12:47:44;;;;;;;6.40;1.20;;;6.50;99.90;;;;;;5019124;28;20056;-62
2022/01/21 12:50:30;;;;;;;1.02;0.55;;;6.50;99.90;;;;;;5028656;28;20049;-63
2022/01/21 12:53:18;;;;;;;1.73;0.60;;;6.50;99.90;;;;;;5028133;28;20041;-65
2022/01/21 12:55:55;;;;;;;1.13;0.43;;;6.50;99.90;;;;;;5027934;28;20045;-62
2022/01/21 12:58:26;;;;;;;1.15;0.50;;;6.50;99.90;;;;;;5013833;28;20052;-63
2022/01/21 13:01:00;;;;;;;5.43;0.70;;;6.50;99.90;;;;;;5028944;28;20045;-66
2022/01/21 13:03:35;;;;;;;0.85;0.45;;;6.40;99.90;;;;;;5028213;28;20052;-64
2022/01/21 13:06:42;;;;;;;4.68;0.50;;;6.40;99.90;;;;;;5027029;28;20531;-63
2022/01/21 13:09:13;;;;;;;5.50;0.70;;;6.40;99.90;;;;;;5030135;28;20421;-64
2022/01/21 13:11:52;;;;;;;1.73;0.95;;;6.40;99.90;;;;;;5029584;28;20041;-62
2022/01/21 13:14:25;;;;;;;3.55;1.63;;;6.30;99.90;;;;;;5027382;28;20050;-62
2022/01/21 13:16:55;;;;;;;4.55;2.20;;;6.30;99.90;;;;;;5028299;28;20055;-63
2022/01/21 13:19:23;;;;;;;3.65;1.85;;;6.30;99.90;;;;;;5029010;28;20086;-62
2022/01/21 13:21:51;;;;;;;3.35;1.13;;;6.30;99.90;;;;;;5026850;28;20574;-68
2022/01/21 13:24:30;;;;;;;3.70;1.65;;;6.30;99.90;;;;;;5030165;28;20049;-69
2022/01/21 13:26:58;;;;;;;4.00;1.02;;;6.20;99.90;;;;;;5029332;28;20041;-68
2022/01/21 13:29:35;;;;;;;2.53;1.27;;;6.30;99.90;;;;;;5029399;28;20401;-65
2022/01/21 13:32:05;;;;;;;2.78;1.13;;;6.20;99.90;;;;;;5029011;28;20049;-63
2022/01/21 13:34:39;;;;;;;4.32;1.30;;;6.20;99.90;;;;;;5029286;28;20045;-67
2022/01/21 13:37:10;;;;;;;3.47;1.60;;;6.20;99.90;;;;;;5059268;28;20048;-63
2022/01/21 13:39:41;;;;;;;4.97;1.70;;;6.20;99.90;;;;;;5030161;28;20049;-65
2022/01/21 13:42:19;;;;;;;6.47;1.85;;;6.20;99.90;;;;;;5014270;28;20049;-65
2022/01/21 13:44:50;;;;;;;3.20;1.80;;;6.20;99.90;;;;;;5028269;28;20094;-70
2022/01/21 13:47:38;;;;;;;4.72;1.80;;;6.20;99.90;;;;;;5028770;28;20046;-63
2022/01/21 13:50:13;;;;;;;1.88;1.50;;;6.20;99.90;;;;;;5027748;28;20515;-62
2022/01/21 13:52:52;;;;;;;2.92;1.35;;;6.20;99.90;;;;;;5018423;28;20829;-63
2022/01/21 13:55:41;;;;;;;16.48;3.03;;;6.20;99.90;;;;;;5028419;28;20485;-62